Triumph — WDC9555 — position and weather

sailwx.info

Track history (hours):
 
Tides and Currents Weather Stations Pressure Air Temp Water Temp Dewpoint Dewpoint Depression Visibility Wind Speed Wind Dir Waves Ship Positions

Triumph

More information available from US FCC via Universal Licensing System and Coast Guard Vessel Documentation Center.

Last reported at 2014-Sep-23 11:33 UTC. Time now 2014-Sep-23 12:24 UTC.
Position N 49°23' W 123°57'.

Length 24 m; draft 4 m.

Type: Tow > 200 m length. MMSI: 367103880.

Date/timePositionNaut miles runAvg speedWind from/ knotsBaromVisibWave heightAir tempDewpointWater temp
2014-Sep-23 11:33N 49°23' W 123°57'6 6.0
2014-Sep-23 10:33N 49°27' W 124°05'6 6.3
2014-Sep-23 09:33N 49°31' W 124°13'7 6.6
2014-Sep-23 08:33N 49°34' W 124°22'6 6.1
2014-Sep-23 07:33N 49°37' W 124°30'6 5.7
2014-Sep-23 06:33N 49°41' W 124°36'7 5.4
2014-Sep-23 05:19N 49°45' W 124°45'6 6.1
2014-Sep-23 04:16N 49°49' W 124°52'5 6.4
2014-Sep-23 03:29N 49°52' W 124°59'6 6.2
2014-Sep-23 02:26N 49°56' W 125°06'19 5.8
2014-Sep-22 23:09N 50°12' W 125°22'4 6.8
2014-Sep-22 22:33N 50°16' W 125°24'41 6.8
2014-Sep-22 16:32N 50°30' W 126°24'8 5.9
2014-Sep-22 15:08N 50°31' W 126°37'13 4.4
2014-Sep-22 12:11N 50°40' W 126°51'10 5.4
2014-Sep-22 10:20N 50°45' W 127°05'5 5.9
2014-Sep-22 09:33N 50°48' W 127°11'6 6.0
2014-Sep-22 08:33N 50°51' W 127°19'7 6.7
2014-Sep-22 07:33N 50°56' W 127°26'6 6.4
2014-Sep-22 06:33N 50°59' W 127°35'6 6.1
2014-Sep-22 05:33N 51°04' W 127°41'6 6.0
2014-Sep-22 04:33N 51°08' W 127°48'15 4.7
2014-Sep-22 01:20N 51°23' W 127°52'4 4.9
2014-Sep-22 00:32N 51°27' W 127°51'7 6.6
2014-Sep-21 23:32N 51°33' W 127°52'189 5.5
2014-Sep-20 13:29N 54°16' W 130°32'4 3.6
2014-Sep-20 12:28N 54°19' W 130°34'4 3.6
2014-Sep-20 11:23N 54°23' W 130°34'4 5.3
2014-Sep-20 10:33N 54°27' W 130°33'  
2014-Sep-17 12:26N 51°32' W 127°52'17 8.8
2014-Sep-17 10:33N 51°15' W 127°53'9 9.2
2014-Sep-17 09:33N 51°07' W 127°46'10 9.5
2014-Sep-17 08:33N 50°60' W 127°36'10 9.6
2014-Sep-17 07:33N 50°54' W 127°24'7 7.2
2014-Sep-17 06:31N 50°49' W 127°15'10 9.1
2014-Sep-17 05:25N 50°43' W 127°02'7 8.6
2014-Sep-17 04:33N 50°40' W 126°51'9 8.7
2014-Sep-17 03:33N 50°34' W 126°41'8 8.3
2014-Sep-17 02:33N 50°30' W 126°30'9 9.0
2014-Sep-17 01:32N 50°29' W 126°15'3210.0
2014-Sep-16 22:21N 50°20' W 125°27'8 9.7
2014-Sep-16 21:33N 50°13' W 125°23'1110.1
2014-Sep-16 20:28N 50°03' W 125°15'9 9.3
2014-Sep-16 19:32N 49°57' W 125°07'9 8.9
2014-Sep-16 18:33N 49°51' W 124°56'9 9.3
2014-Sep-16 17:32N 49°45' W 124°45'9 9.2
2014-Sep-16 16:33N 49°40' W 124°34'9 9.2
2014-Sep-16 15:33N 49°34' W 124°22'9 9.3
2014-Sep-16 14:33N 49°30' W 124°10'9 8.9
2014-Sep-16 13:33N 49°25' W 123°58'9 8.9
2014-Sep-16 12:33N 49°20' W 123°47'9 8.9
2014-Sep-16 11:33N 49°14' W 123°37'9 8.6
2014-Sep-16 10:33N 49°08' W 123°27'8 8.4
2014-Sep-16 09:33N 49°02' W 123°18'8 7.7
2014-Sep-16 08:33N 48°57' W 123°09'7 7.3
2014-Sep-16 07:33N 48°53' W 123°00'7 8.2
2014-Sep-16 06:40N 48°48' W 122°52'1 7.7
2014-Sep-16 06:33N 48°47' W 122°51'1 9.2
2014-Sep-16 06:25N 48°47' W 122°49'5 8.5
2014-Sep-16 05:50N 48°43' W 122°44'2 8.2
2014-Sep-16 05:33N 48°41' W 122°43'9 8.6
2014-Sep-16 04:33N 48°33' W 122°45'10 9.2
2014-Sep-16 03:30N 48°23' W 122°44'15 7.4
2014-Sep-16 01:27N 48°08' W 122°41'9 9.2
2014-Sep-16 00:25N 47°59' W 122°35'0 9.6
2014-Sep-16 00:23N 47°59' W 122°35'7 8.8
2014-Sep-15 23:33N 47°53' W 122°28'0 8.4
2014-Sep-15 23:33N 47°53' W 122°28'9 9.3
2014-Sep-15 22:33N 47°44' W 122°26'011.2
2014-Sep-15 22:33N 47°44' W 122°26'9 7.9
2014-Sep-15 21:24N 47°36' W 122°22'4 4.4
2014-Sep-15 20:24N 47°39' W 122°26'2 2.5
2014-Sep-15 19:33N 47°40' W 122°23'1 1.2
2014-Sep-15 18:33N 47°39' W 122°22'  
Track history (hours):
 
Tides and Currents Weather Stations Pressure Air Temp Water Temp Dewpoint Dewpoint Depression Visibility Wind Speed Wind Dir Waves Ship Positions

Triumph

More information available from US FCC via Universal Licensing System and Coast Guard Vessel Documentation Center.

Last reported at 2014-Sep-23 11:33 UTC. Time now 2014-Sep-23 12:24 UTC.
Position N 49°23' W 123°57'.

Length 24 m; draft 4 m.

Type: Tow > 200 m length. MMSI: 367103880.

Date/timePositionNaut miles runAvg speedWind from/ knotsBaromVisibWave heightAir tempDewpointWater temp
2014-Sep-23 11:33N 49°23' W 123°57'6 6.0
2014-Sep-23 10:33N 49°27' W 124°05'6 6.3
2014-Sep-23 09:33N 49°31' W 124°13'7 6.6
2014-Sep-23 08:33N 49°34' W 124°22'6 6.1
2014-Sep-23 07:33N 49°37' W 124°30'6 5.7
2014-Sep-23 06:33N 49°41' W 124°36'7 5.4
2014-Sep-23 05:19N 49°45' W 124°45'6 6.1
2014-Sep-23 04:16N 49°49' W 124°52'5 6.4
2014-Sep-23 03:29N 49°52' W 124°59'6 6.2
2014-Sep-23 02:26N 49°56' W 125°06'19 5.8
2014-Sep-22 23:09N 50°12' W 125°22'4 6.8
2014-Sep-22 22:33N 50°16' W 125°24'41 6.8
2014-Sep-22 16:32N 50°30' W 126°24'8 5.9
2014-Sep-22 15:08N 50°31' W 126°37'13 4.4
2014-Sep-22 12:11N 50°40' W 126°51'10 5.4
2014-Sep-22 10:20N 50°45' W 127°05'5 5.9
2014-Sep-22 09:33N 50°48' W 127°11'6 6.0
2014-Sep-22 08:33N 50°51' W 127°19'7 6.7
2014-Sep-22 07:33N 50°56' W 127°26'6 6.4
2014-Sep-22 06:33N 50°59' W 127°35'6 6.1
2014-Sep-22 05:33N 51°04' W 127°41'6 6.0
2014-Sep-22 04:33N 51°08' W 127°48'15 4.7
2014-Sep-22 01:20N 51°23' W 127°52'4 4.9
2014-Sep-22 00:32N 51°27' W 127°51'7 6.6
2014-Sep-21 23:32N 51°33' W 127°52'189 5.5
2014-Sep-20 13:29N 54°16' W 130°32'4 3.6
2014-Sep-20 12:28N 54°19' W 130°34'4 3.6
2014-Sep-20 11:23N 54°23' W 130°34'4 5.3
2014-Sep-20 10:33N 54°27' W 130°33'  
2014-Sep-17 12:26N 51°32' W 127°52'17 8.8
2014-Sep-17 10:33N 51°15' W 127°53'9 9.2
2014-Sep-17 09:33N 51°07' W 127°46'10 9.5
2014-Sep-17 08:33N 50°60' W 127°36'10 9.6
2014-Sep-17 07:33N 50°54' W 127°24'7 7.2
2014-Sep-17 06:31N 50°49' W 127°15'10 9.1
2014-Sep-17 05:25N 50°43' W 127°02'7 8.6
2014-Sep-17 04:33N 50°40' W 126°51'9 8.7
2014-Sep-17 03:33N 50°34' W 126°41'8 8.3
2014-Sep-17 02:33N 50°30' W 126°30'9 9.0
2014-Sep-17 01:32N 50°29' W 126°15'3210.0
2014-Sep-16 22:21N 50°20' W 125°27'8 9.7
2014-Sep-16 21:33N 50°13' W 125°23'1110.1
2014-Sep-16 20:28N 50°03' W 125°15'9 9.3
2014-Sep-16 19:32N 49°57' W 125°07'9 8.9
2014-Sep-16 18:33N 49°51' W 124°56'9 9.3
2014-Sep-16 17:32N 49°45' W 124°45'9 9.2
2014-Sep-16 16:33N 49°40' W 124°34'9 9.2
2014-Sep-16 15:33N 49°34' W 124°22'9 9.3
2014-Sep-16 14:33N 49°30' W 124°10'9 8.9
2014-Sep-16 13:33N 49°25' W 123°58'9 8.9
2014-Sep-16 12:33N 49°20' W 123°47'9 8.9
2014-Sep-16 11:33N 49°14' W 123°37'9 8.6
2014-Sep-16 10:33N 49°08' W 123°27'8 8.4
2014-Sep-16 09:33N 49°02' W 123°18'8 7.7
2014-Sep-16 08:33N 48°57' W 123°09'7 7.3
2014-Sep-16 07:33N 48°53' W 123°00'7 8.2
2014-Sep-16 06:40N 48°48' W 122°52'1 7.7
2014-Sep-16 06:33N 48°47' W 122°51'1 9.2
2014-Sep-16 06:25N 48°47' W 122°49'5 8.5
2014-Sep-16 05:50N 48°43' W 122°44'2 8.2
2014-Sep-16 05:33N 48°41' W 122°43'9 8.6
2014-Sep-16 04:33N 48°33' W 122°45'10 9.2
2014-Sep-16 03:30N 48°23' W 122°44'15 7.4
2014-Sep-16 01:27N 48°08' W 122°41'9 9.2
2014-Sep-16 00:25N 47°59' W 122°35'0 9.6
2014-Sep-16 00:23N 47°59' W 122°35'7 8.8
2014-Sep-15 23:33N 47°53' W 122°28'0 8.4
2014-Sep-15 23:33N 47°53' W 122°28'9 9.3
2014-Sep-15 22:33N 47°44' W 122°26'011.2
2014-Sep-15 22:33N 47°44' W 122°26'9 7.9
2014-Sep-15 21:24N 47°36' W 122°22'4 4.4
2014-Sep-15 20:24N 47°39' W 122°26'2 2.5
2014-Sep-15 19:33N 47°40' W 122°23'1 1.2
2014-Sep-15 18:33N 47°39' W 122°22'  

Dump ship's entire track history